createdAt,value
2017-11-07T00:00:30.937Z,20.30
2017-11-07T00:01:30.957Z,19.50
2017-11-07T00:02:30.965Z,19.00
2017-11-07T00:03:30.981Z,19.60
2017-11-07T00:04:30.993Z,21.10
2017-11-07T00:05:31.009Z,22.70
2017-11-07T00:06:31.018Z,23.00
2017-11-07T00:07:31.034Z,24.40
2017-11-07T00:08:31.049Z,22.50
2017-11-07T00:09:31.065Z,25.90
2017-11-07T00:10:31.075Z,27.00
2017-11-07T00:11:31.091Z,26.80
2017-11-07T00:12:31.103Z,26.30
2017-11-07T00:13:31.118Z,25.10
2017-11-07T00:14:31.134Z,27.70
2017-11-07T00:15:31.148Z,30.00
2017-11-07T00:16:31.157Z,25.50
2017-11-07T00:17:31.171Z,25.30
2017-11-07T00:18:31.186Z,29.50
2017-11-07T00:19:31.199Z,28.70
2017-11-07T00:20:31.216Z,28.30
2017-11-07T00:21:31.230Z,29.10
2017-11-07T00:22:31.246Z,29.20
2017-11-07T00:23:31.260Z,33.50
2017-11-07T00:24:31.269Z,29.30
2017-11-07T00:25:31.286Z,39.00
2017-11-07T00:26:31.305Z,44.50
2017-11-07T00:27:31.313Z,47.50
2017-11-07T00:28:31.327Z,46.40
2017-11-07T00:29:31.340Z,42.10
2017-11-07T00:30:31.353Z,44.60
2017-11-07T00:31:31.371Z,44.00
2017-11-07T00:32:31.381Z,45.50
2017-11-07T00:33:31.400Z,43.50
2017-11-07T00:34:31.412Z,40.90
2017-11-07T00:35:31.424Z,41.90
2017-11-07T00:36:31.459Z,41.50
2017-11-07T00:37:31.455Z,43.00
2017-11-07T00:38:31.464Z,42.00
2017-11-07T00:39:31.480Z,47.30
2017-11-07T00:40:31.499Z,42.40
2017-11-07T00:41:31.511Z,41.40
2017-11-07T00:42:31.525Z,38.90
2017-11-07T00:43:31.537Z,38.80
2017-11-07T00:44:31.553Z,36.40
2017-11-07T00:45:31.568Z,34.50
2017-11-07T00:46:31.581Z,33.20
2017-11-07T00:47:31.593Z,33.90
2017-11-07T00:48:31.615Z,31.70
2017-11-07T00:49:31.632Z,31.40
2017-11-07T00:50:31.638Z,31.70
2017-11-07T00:51:31.651Z,32.70
2017-11-07T00:52:31.664Z,30.60
2017-11-07T00:53:31.679Z,30.90
2017-11-07T00:54:31.693Z,28.80
2017-11-07T00:55:31.708Z,28.70
2017-11-07T00:56:31.722Z,28.40
2017-11-07T00:57:31.734Z,28.40
2017-11-07T00:58:31.757Z,27.10
2017-11-07T00:59:31.764Z,25.00
2017-11-07T01:00:31.781Z,28.00
2017-11-07T01:01:31.793Z,27.00
2017-11-07T01:02:31.807Z,28.70
2017-11-07T01:03:31.823Z,24.50
2017-11-07T01:04:31.836Z,24.70
2017-11-07T01:05:31.851Z,25.90
2017-11-07T01:06:31.864Z,27.50
2017-11-07T01:07:31.879Z,25.60
2017-11-07T01:08:31.895Z,26.00
2017-11-07T01:09:31.909Z,26.50
2017-11-07T01:10:31.922Z,23.90
2017-11-07T01:11:31.935Z,22.60
2017-11-07T01:12:31.950Z,24.80
2017-11-07T01:13:31.965Z,23.60
2017-11-07T01:14:31.980Z,25.00
2017-11-07T01:15:31.995Z,23.80
2017-11-07T01:16:32.009Z,26.00
2017-11-07T01:17:32.022Z,26.40
2017-11-07T01:18:32.033Z,25.20
2017-11-07T01:19:32.050Z,23.90
2017-11-07T01:20:32.068Z,24.90
2017-11-07T01:21:32.080Z,26.00
2017-11-07T01:22:32.094Z,27.60
2017-11-07T01:23:32.109Z,22.30
2017-11-07T01:24:32.122Z,22.60
2017-11-07T01:25:32.136Z,24.30
2017-11-07T01:26:32.154Z,26.10
2017-11-07T01:27:32.166Z,24.30
2017-11-07T01:28:32.179Z,22.70
2017-11-07T01:29:32.195Z,24.30
2017-11-07T01:30:32.210Z,23.40
2017-11-07T01:31:32.224Z,29.60
2017-11-07T01:32:32.242Z,30.40
2017-11-07T01:33:32.252Z,24.90
2017-11-07T01:34:32.267Z,25.60
2017-11-07T01:35:32.279Z,28.80
2017-11-07T01:36:32.296Z,29.90
2017-11-07T01:37:32.310Z,25.90
2017-11-07T01:38:32.325Z,32.10
2017-11-07T01:39:32.338Z,34.60
2017-11-07T01:40:32.355Z,32.70
2017-11-07T01:41:32.368Z,22.50
2017-11-07T01:42:32.381Z,23.10
2017-11-07T01:43:32.396Z,22.80
2017-11-07T01:44:32.409Z,24.20
2017-11-07T01:45:32.423Z,24.40
2017-11-07T01:46:32.437Z,23.70
2017-11-07T01:47:32.457Z,22.10
2017-11-07T01:48:32.465Z,22.50
2017-11-07T01:49:32.480Z,21.40
2017-11-07T01:50:32.497Z,21.20
2017-11-07T01:51:32.508Z,20.90
2017-11-07T01:52:32.521Z,19.40
2017-11-07T01:53:32.539Z,19.50
2017-11-07T01:54:32.552Z,21.50
2017-11-07T01:55:32.564Z,26.80
2017-11-07T01:56:32.583Z,25.40
2017-11-07T01:57:32.598Z,23.70
2017-11-07T01:58:32.607Z,25.50
2017-11-07T01:59:32.623Z,26.30
2017-11-07T02:00:32.638Z,21.60
2017-11-07T02:01:32.654Z,23.60
2017-11-07T02:02:32.664Z,23.70
2017-11-07T02:03:32.680Z,25.40
2017-11-07T02:04:32.696Z,24.40
2017-11-07T02:05:32.710Z,26.70
2017-11-07T02:06:32.724Z,26.50
2017-11-07T02:07:32.736Z,23.40
2017-11-07T02:08:32.751Z,23.30
2017-11-07T02:09:32.766Z,29.60
2017-11-07T02:10:32.781Z,27.10
2017-11-07T02:11:32.792Z,26.50
2017-11-07T02:12:32.807Z,25.40
2017-11-07T02:13:32.823Z,24.20
2017-11-07T02:14:32.835Z,23.90
2017-11-07T02:15:32.851Z,23.60
2017-11-07T02:16:32.865Z,21.80
2017-11-07T02:17:32.881Z,22.90
2017-11-07T02:18:32.893Z,22.60
2017-11-07T02:19:32.909Z,23.20
2017-11-07T02:20:32.922Z,21.90
2017-11-07T02:21:32.934Z,20.70
2017-11-07T02:22:32.950Z,21.80
2017-11-07T02:23:32.964Z,20.60
2017-11-07T02:24:32.981Z,22.90
2017-11-07T02:25:32.992Z,23.80
2017-11-07T02:26:33.005Z,24.70
2017-11-07T02:27:33.020Z,21.90
2017-11-07T02:28:33.036Z,20.60
2017-11-07T02:29:33.050Z,21.40
2017-11-07T02:30:33.064Z,22.40
2017-11-07T02:31:33.080Z,22.50
2017-11-07T02:32:33.091Z,21.30
2017-11-07T02:33:33.110Z,24.00
2017-11-07T02:34:33.122Z,22.20
2017-11-07T02:35:33.134Z,20.50
2017-11-07T02:36:33.149Z,18.40
2017-11-07T02:37:33.165Z,18.00
2017-11-07T02:38:33.178Z,17.00
2017-11-07T02:39:33.191Z,17.30
2017-11-07T02:40:33.202Z,16.50
2017-11-07T02:41:33.217Z,17.20
2017-11-07T02:42:33.229Z,17.40
2017-11-07T02:43:33.248Z,19.40
2017-11-07T02:44:33.265Z,19.50
2017-11-07T02:45:33.274Z,17.50
2017-11-07T02:46:33.288Z,15.30
2017-11-07T02:47:33.301Z,17.40
2017-11-07T02:48:33.316Z,16.80
2017-11-07T02:49:33.330Z,14.80
2017-11-07T02:50:33.342Z,14.50
2017-11-07T02:51:33.359Z,14.40
2017-11-07T02:52:33.372Z,15.40
2017-11-07T02:53:33.387Z,14.70
2017-11-07T02:54:33.399Z,14.70
2017-11-07T02:55:33.415Z,13.30
2017-11-07T02:56:33.428Z,14.20
2017-11-07T02:57:33.453Z,14.20
2017-11-07T02:58:33.458Z,13.30
2017-11-07T02:59:33.469Z,13.80
2017-11-07T03:00:33.487Z,13.90
2017-11-07T03:01:33.498Z,13.30
2017-11-07T03:02:33.509Z,13.10
2017-11-07T03:03:33.527Z,12.50
2017-11-07T03:04:33.541Z,13.00
2017-11-07T03:05:33.555Z,13.60
2017-11-07T03:06:33.569Z,13.50
2017-11-07T03:07:33.581Z,14.80
2017-11-07T03:08:33.595Z,15.90
2017-11-07T03:09:33.610Z,16.10
2017-11-07T03:10:33.622Z,16.00
2017-11-07T03:11:33.645Z,16.40
2017-11-07T03:12:33.653Z,16.00
2017-11-07T03:13:33.668Z,15.40
2017-11-07T03:14:33.680Z,17.40
2017-11-07T03:15:33.694Z,15.60
2017-11-07T03:16:33.708Z,15.60
2017-11-07T03:17:33.725Z,16.40
2017-11-07T03:18:33.735Z,20.40
2017-11-07T03:19:33.752Z,18.60
2017-11-07T03:20:33.763Z,21.30
2017-11-07T03:21:33.780Z,20.90
2017-11-07T03:22:33.791Z,24.40
2017-11-07T03:23:33.804Z,20.60
2017-11-07T03:24:33.821Z,20.60
2017-11-07T03:25:33.835Z,19.10
2017-11-07T03:26:33.847Z,20.10
2017-11-07T03:27:33.859Z,16.90
2017-11-07T03:28:33.875Z,20.10
2017-11-07T03:29:33.891Z,19.50
2017-11-07T03:30:33.905Z,22.50
2017-11-07T03:31:33.918Z,23.10
2017-11-07T03:32:33.932Z,21.30
2017-11-07T03:33:33.951Z,23.90
2017-11-07T03:34:33.959Z,22.60
2017-11-07T03:35:33.973Z,21.90
2017-11-07T03:36:33.993Z,23.10
2017-11-07T03:37:34.003Z,23.10
2017-11-07T03:38:34.017Z,18.80
2017-11-07T03:39:34.032Z,17.50
2017-11-07T03:40:34.041Z,20.60
2017-11-07T03:41:34.057Z,20.40
2017-11-07T03:42:34.069Z,20.20
2017-11-07T03:43:34.083Z,17.20
2017-11-07T03:44:34.112Z,19.60
2017-11-07T03:45:34.110Z,17.20
2017-11-07T03:46:34.122Z,15.80
2017-11-07T03:47:34.137Z,16.70
2017-11-07T03:48:34.150Z,17.00
2017-11-07T03:49:34.171Z,20.30
2017-11-07T03:50:34.179Z,17.50
2017-11-07T03:51:34.194Z,15.90
2017-11-07T03:52:34.208Z,16.50
2017-11-07T03:53:34.222Z,17.90
2017-11-07T03:54:34.235Z,18.00
2017-11-07T03:55:34.248Z,20.30
2017-11-07T03:56:34.259Z,18.90
2017-11-07T03:57:34.281Z,19.10
2017-11-07T03:58:34.290Z,19.00
2017-11-07T03:59:34.305Z,17.40
2017-11-07T04:00:34.318Z,16.30
2017-11-07T04:01:34.330Z,16.80
2017-11-07T04:02:34.352Z,14.10
2017-11-07T04:03:34.359Z,16.20
2017-11-07T04:04:34.372Z,14.30
2017-11-07T04:05:34.386Z,13.20
2017-11-07T04:06:34.397Z,12.50
2017-11-07T04:07:34.413Z,13.30
2017-11-07T04:08:34.428Z,12.00
2017-11-07T04:09:34.443Z,12.80
2017-11-07T04:10:34.455Z,11.90
2017-11-07T04:11:34.469Z,11.80
2017-11-07T04:12:34.482Z,13.10
2017-11-07T04:13:34.497Z,11.40
2017-11-07T04:14:34.508Z,11.50
2017-11-07T04:15:34.525Z,11.00
2017-11-07T04:16:34.538Z,11.30
2017-11-07T04:17:34.551Z,11.70
2017-11-07T04:18:34.565Z,9.80
2017-11-07T04:19:34.587Z,10.70
2017-11-07T04:20:34.595Z,9.50
2017-11-07T04:21:34.607Z,10.00
2017-11-07T04:22:34.621Z,9.60
2017-11-07T04:23:34.634Z,9.80
2017-11-07T04:24:34.649Z,10.70
2017-11-07T04:25:34.662Z,11.10
2017-11-07T04:26:34.678Z,11.30
2017-11-07T04:27:34.691Z,11.10
2017-11-07T04:28:34.708Z,12.10
2017-11-07T04:29:34.719Z,11.10
2017-11-07T04:30:34.736Z,10.90
2017-11-07T04:31:34.743Z,10.90
2017-11-07T04:32:34.760Z,10.80
2017-11-07T04:33:34.776Z,11.50
2017-11-07T04:34:34.785Z,11.70
2017-11-07T04:35:34.800Z,12.20
2017-11-07T04:36:34.812Z,13.50
2017-11-07T04:37:34.829Z,18.80
2017-11-07T04:38:34.841Z,14.80
2017-11-07T04:39:34.854Z,12.70
2017-11-07T04:40:34.867Z,11.30
2017-11-07T04:41:34.884Z,10.00
2017-11-07T04:42:34.897Z,12.00
2017-11-07T04:43:34.910Z,11.10
2017-11-07T04:44:34.926Z,10.90
2017-11-07T04:45:34.941Z,11.10
2017-11-07T04:46:34.953Z,11.70
2017-11-07T04:47:34.968Z,11.80
2017-11-07T04:48:34.982Z,11.80
2017-11-07T04:49:34.994Z,13.00
2017-11-07T04:50:35.008Z,13.50
2017-11-07T04:51:35.024Z,13.20
2017-11-07T04:52:35.038Z,14.70
2017-11-07T04:53:35.055Z,15.80
2017-11-07T04:54:35.069Z,15.00
2017-11-07T04:55:35.076Z,15.50
2017-11-07T04:56:35.092Z,16.50
2017-11-07T04:57:35.107Z,18.00
2017-11-07T04:58:35.120Z,20.40
2017-11-07T04:59:35.132Z,19.10
2017-11-07T05:00:35.146Z,15.90
2017-11-07T05:01:35.160Z,14.90
2017-11-07T05:02:35.174Z,14.90
2017-11-07T05:03:35.186Z,17.30
2017-11-07T05:04:35.202Z,17.20
2017-11-07T05:05:35.215Z,16.30
2017-11-07T05:06:35.229Z,16.50
2017-11-07T05:07:35.248Z,15.90
2017-11-07T05:08:35.263Z,15.70
2017-11-07T05:09:35.273Z,15.90
2017-11-07T05:10:35.294Z,15.80
2017-11-07T05:11:35.298Z,18.40
2017-11-07T05:12:35.313Z,18.80
2017-11-07T05:13:35.329Z,17.30
2017-11-07T05:14:35.339Z,17.90
2017-11-07T05:15:35.352Z,22.60
2017-11-07T05:16:35.369Z,23.90
2017-11-07T05:17:35.382Z,20.50
2017-11-07T05:18:35.395Z,19.70
2017-11-07T05:19:35.409Z,17.60
2017-11-07T05:20:35.424Z,16.20
2017-11-07T05:21:35.441Z,16.80
2017-11-07T05:22:35.451Z,20.70
2017-11-07T05:23:35.467Z,19.50
2017-11-07T05:24:35.483Z,18.60
2017-11-07T05:25:35.494Z,18.70
2017-11-07T05:26:35.506Z,20.40
2017-11-07T05:27:35.519Z,20.30
2017-11-07T05:28:35.533Z,20.10
2017-11-07T05:29:35.545Z,20.00
2017-11-07T05:30:35.560Z,21.60
2017-11-07T05:31:35.575Z,24.80
2017-11-07T05:32:35.589Z,28.70
2017-11-07T05:33:35.606Z,22.40
2017-11-07T05:34:35.615Z,19.40
2017-11-07T05:35:35.629Z,18.80
2017-11-07T05:36:35.647Z,18.10
2017-11-07T05:37:35.661Z,16.10
2017-11-07T05:38:35.672Z,16.10
2017-11-07T05:39:35.685Z,21.60
2017-11-07T05:40:35.698Z,24.20
2017-11-07T05:41:35.717Z,27.40
2017-11-07T05:42:35.726Z,27.20
2017-11-07T05:43:35.744Z,21.30
2017-11-07T05:44:35.755Z,19.50
2017-11-07T05:45:35.773Z,17.10
2017-11-07T05:46:35.784Z,18.40
2017-11-07T05:47:35.797Z,21.70
2017-11-07T05:48:35.814Z,37.50
2017-11-07T05:49:35.827Z,65.40
2017-11-07T05:50:35.838Z,54.60
2017-11-07T05:51:35.853Z,40.70
2017-11-07T05:52:35.867Z,23.40
2017-11-07T05:53:35.883Z,19.30
2017-11-07T05:54:35.893Z,19.30
2017-11-07T05:55:35.910Z,23.40
2017-11-07T05:56:35.922Z,20.70
2017-11-07T05:57:35.936Z,20.40
2017-11-07T05:58:35.950Z,19.10
2017-11-07T05:59:35.964Z,21.50
2017-11-07T06:00:35.978Z,20.40
2017-11-07T06:01:35.990Z,20.80
2017-11-07T06:02:36.006Z,21.60
2017-11-07T06:03:36.018Z,19.20
2017-11-07T06:04:36.034Z,19.10
2017-11-07T06:05:36.049Z,20.20
2017-11-07T06:06:36.062Z,21.00
2017-11-07T06:07:36.078Z,22.70
2017-11-07T06:08:36.087Z,24.10
2017-11-07T06:09:36.102Z,17.60
2017-11-07T06:10:36.114Z,18.50
2017-11-07T06:11:36.130Z,18.60
2017-11-07T06:12:36.143Z,18.50
2017-11-07T06:13:36.160Z,19.50
2017-11-07T06:14:36.171Z,55.00
2017-11-07T06:15:36.189Z,34.50
2017-11-07T06:16:36.199Z,34.60
2017-11-07T06:17:36.213Z,27.40
2017-11-07T06:18:36.225Z,23.50
2017-11-07T06:19:36.246Z,23.60
2017-11-07T06:20:36.253Z,23.70
2017-11-07T06:21:36.268Z,24.80
2017-11-07T06:22:36.280Z,24.60
2017-11-07T06:23:36.296Z,20.90
2017-11-07T06:24:36.308Z,24.20
2017-11-07T06:25:36.324Z,21.40
2017-11-07T06:26:36.337Z,21.70
2017-11-07T06:27:36.349Z,23.20
2017-11-07T06:28:36.365Z,21.20
2017-11-07T06:29:36.387Z,21.80
2017-11-07T06:30:36.392Z,24.20
2017-11-07T06:31:36.410Z,25.80
2017-11-07T06:32:36.418Z,23.00
2017-11-07T06:33:36.435Z,29.80
2017-11-07T06:34:36.446Z,28.80
2017-11-07T06:35:36.459Z,27.40
2017-11-07T06:36:36.475Z,25.90
2017-11-07T06:37:36.489Z,21.40
2017-11-07T06:38:36.501Z,21.80
2017-11-07T06:39:36.518Z,20.60
2017-11-07T06:40:36.535Z,24.10
2017-11-07T06:41:36.542Z,21.60
2017-11-07T06:42:36.559Z,23.70
2017-11-07T06:43:36.572Z,21.30
2017-11-07T06:44:36.585Z,23.90
2017-11-07T06:45:36.599Z,23.80
2017-11-07T06:46:36.612Z,23.40
2017-11-07T06:47:36.627Z,20.60
2017-11-07T06:48:36.642Z,19.20
2017-11-07T06:49:36.655Z,17.50
2017-11-07T06:50:36.668Z,16.40
2017-11-07T06:51:36.683Z,16.70
2017-11-07T06:52:36.697Z,16.40
2017-11-07T06:53:36.712Z,16.40
2017-11-07T06:54:36.725Z,18.00
2017-11-07T06:55:36.744Z,19.40
2017-11-07T06:56:36.751Z,21.30
2017-11-07T06:57:36.768Z,30.30
2017-11-07T06:58:36.779Z,24.60
2017-11-07T06:59:36.797Z,17.40
2017-11-07T07:00:36.809Z,16.70
2017-11-07T07:01:36.826Z,15.10
2017-11-07T07:02:36.840Z,13.50
2017-11-07T07:03:36.854Z,13.80
2017-11-07T07:04:36.867Z,13.10
2017-11-07T07:05:36.881Z,13.70
2017-11-07T07:06:36.893Z,14.50
2017-11-07T07:07:36.909Z,11.70
2017-11-07T07:08:36.924Z,11.50
2017-11-07T07:09:36.938Z,11.70
2017-11-07T07:10:36.951Z,12.40
2017-11-07T07:11:36.965Z,12.50
2017-11-07T07:12:36.979Z,12.30
2017-11-07T07:13:36.994Z,12.60
2017-11-07T07:14:37.008Z,12.50
2017-11-07T07:15:37.026Z,14.00
2017-11-07T07:16:37.036Z,13.20
2017-11-07T07:17:37.052Z,11.60
2017-11-07T07:18:37.065Z,11.90
2017-11-07T07:19:37.081Z,14.20
2017-11-07T07:20:37.095Z,12.80
2017-11-07T07:21:37.112Z,14.00
2017-11-07T07:22:37.123Z,12.50
2017-11-07T07:23:37.144Z,12.80
2017-11-07T07:24:37.151Z,12.90
2017-11-07T07:25:37.167Z,12.60
2017-11-07T07:26:37.181Z,11.90
2017-11-07T07:27:37.196Z,11.50
2017-11-07T07:28:37.210Z,12.20
2017-11-07T07:29:37.225Z,16.60
2017-11-07T07:30:37.238Z,15.90
2017-11-07T07:31:37.256Z,13.90
2017-11-07T07:32:37.269Z,13.10
2017-11-07T07:33:37.284Z,12.10
2017-11-07T07:34:37.298Z,11.80
2017-11-07T07:35:37.313Z,10.80
2017-11-07T07:36:37.326Z,11.50
2017-11-07T07:37:37.341Z,11.80
2017-11-07T07:38:37.354Z,13.00
2017-11-07T07:39:37.371Z,13.40
2017-11-07T07:40:37.387Z,12.80
2017-11-07T07:41:37.400Z,12.30
2017-11-07T07:42:37.413Z,12.30
2017-11-07T07:43:37.428Z,11.50
2017-11-07T07:44:37.452Z,10.30
2017-11-07T07:45:37.474Z,10.80
2017-11-07T07:46:37.471Z,10.20
2017-11-07T07:47:37.487Z,10.60
2017-11-07T07:48:37.503Z,10.80
2017-11-07T07:49:37.518Z,10.70
2017-11-07T07:50:37.533Z,10.10
2017-11-07T07:51:37.547Z,10.30
2017-11-07T07:52:37.562Z,10.70
2017-11-07T07:53:37.577Z,11.10
2017-11-07T07:54:37.591Z,10.60
2017-11-07T07:55:37.620Z,9.90
2017-11-07T07:56:37.623Z,10.00
2017-11-07T07:57:37.639Z,10.40
2017-11-07T07:58:37.654Z,12.10
2017-11-07T07:59:37.670Z,11.80
2017-11-07T08:00:37.687Z,11.40
2017-11-07T08:01:37.702Z,11.10
2017-11-07T08:02:37.717Z,10.00
2017-11-07T08:03:37.734Z,10.60
2017-11-07T08:04:37.745Z,10.70
2017-11-07T08:05:37.764Z,10.20
2017-11-07T08:06:37.780Z,10.70
2017-11-07T08:07:37.796Z,10.50
2017-11-07T08:08:37.811Z,10.80
2017-11-07T08:09:37.827Z,11.20
2017-11-07T08:10:37.839Z,12.30
2017-11-07T08:11:37.856Z,12.40
2017-11-07T08:12:37.874Z,12.00
2017-11-07T08:13:37.889Z,11.70
2017-11-07T08:14:37.901Z,11.40
2017-11-07T08:15:37.923Z,13.90
2017-11-07T08:16:37.932Z,13.20
2017-11-07T08:17:37.952Z,13.20
2017-11-07T08:18:37.961Z,11.20
2017-11-07T08:19:37.980Z,12.10
2017-11-07T08:20:37.994Z,12.10
2017-11-07T08:21:38.007Z,12.00
2017-11-07T08:22:38.028Z,12.20
2017-11-07T08:23:38.041Z,12.00
2017-11-07T08:24:38.052Z,11.50
2017-11-07T08:25:38.072Z,12.10
2017-11-07T08:26:38.087Z,11.40
2017-11-07T08:27:38.100Z,10.80
2017-11-07T08:28:38.117Z,11.30
2017-11-07T08:29:38.129Z,11.10
2017-11-07T08:30:38.147Z,12.50
2017-11-07T08:31:38.162Z,11.60
2017-11-07T08:32:38.177Z,11.90
2017-11-07T08:33:38.191Z,12.50
2017-11-07T08:34:38.208Z,11.90
2017-11-07T08:35:38.225Z,11.90
2017-11-07T08:36:38.238Z,12.40
2017-11-07T08:37:38.256Z,12.20
2017-11-07T08:38:38.269Z,13.50
2017-11-07T08:39:38.287Z,12.00
2017-11-07T08:40:38.303Z,10.60
2017-11-07T08:41:38.315Z,9.70
2017-11-07T08:42:38.333Z,10.20
2017-11-07T08:43:38.346Z,9.30
2017-11-07T08:44:38.364Z,9.30
2017-11-07T08:45:38.380Z,7.80
2017-11-07T08:46:38.391Z,7.80
2017-11-07T08:47:38.410Z,8.30
2017-11-07T08:48:38.426Z,9.40
2017-11-07T08:49:38.440Z,9.70
2017-11-07T08:50:38.457Z,10.50
2017-11-07T08:51:38.473Z,9.90
2017-11-07T08:52:38.491Z,9.40
2017-11-07T08:53:38.503Z,9.50
2017-11-07T08:54:38.527Z,9.20
2017-11-07T08:55:38.536Z,9.50
2017-11-07T08:56:38.553Z,9.20
2017-11-07T08:57:38.574Z,9.40
2017-11-07T08:58:38.583Z,9.30
2017-11-07T08:59:38.601Z,10.10
2017-11-07T09:00:38.627Z,9.10
2017-11-07T09:01:38.641Z,8.80
2017-11-07T09:02:38.649Z,9.10
2017-11-07T09:03:38.672Z,10.00
2017-11-07T09:04:38.691Z,10.40
2017-11-07T09:05:38.701Z,10.10
2017-11-07T09:06:38.715Z,9.50
2017-11-07T09:07:38.735Z,9.30
2017-11-07T09:08:38.748Z,8.70
2017-11-07T09:09:38.762Z,8.70
2017-11-07T09:10:38.781Z,8.90
2017-11-07T09:11:38.797Z,9.50
2017-11-07T09:12:38.816Z,8.80
2017-11-07T09:13:38.828Z,9.60
2017-11-07T09:14:38.845Z,8.20
2017-11-07T09:15:38.864Z,8.40
2017-11-07T09:16:38.880Z,7.90
2017-11-07T09:17:38.896Z,7.30
2017-11-07T09:18:38.913Z,7.50
2017-11-07T09:19:38.927Z,6.80
2017-11-07T09:20:38.943Z,7.00
2017-11-07T09:21:38.961Z,7.00
2017-11-07T09:22:38.977Z,7.20
2017-11-07T09:23:38.994Z,7.30
2017-11-07T09:24:39.008Z,6.80
2017-11-07T09:25:39.025Z,6.50
2017-11-07T09:26:39.043Z,6.60
2017-11-07T09:27:39.057Z,6.90
2017-11-07T09:28:39.073Z,7.10
2017-11-07T09:29:39.091Z,7.00
2017-11-07T09:30:39.105Z,7.10
2017-11-07T09:31:39.124Z,6.70
2017-11-07T09:32:39.139Z,6.90
2017-11-07T09:33:39.155Z,6.00
2017-11-07T09:34:39.171Z,6.10
2017-11-07T09:35:39.188Z,8.50
2017-11-07T09:36:39.207Z,10.60
2017-11-07T09:37:39.224Z,10.40
2017-11-07T09:38:39.237Z,9.50
2017-11-07T09:39:39.257Z,9.70
2017-11-07T09:40:39.271Z,8.30
2017-11-07T09:41:39.286Z,7.80
2017-11-07T09:42:39.305Z,9.30
2017-11-07T09:43:39.320Z,8.10
2017-11-07T09:44:39.337Z,8.00
2017-11-07T09:45:39.357Z,8.50
2017-11-07T09:46:39.371Z,7.80
2017-11-07T09:47:39.386Z,7.70
2017-11-07T09:48:39.405Z,8.90
2017-11-07T09:49:39.423Z,8.60
2017-11-07T09:50:39.438Z,8.40
2017-11-07T09:51:39.458Z,9.10
2017-11-07T09:52:39.471Z,8.20
2017-11-07T09:53:39.489Z,7.90
2017-11-07T09:54:39.504Z,8.20
2017-11-07T09:55:39.522Z,8.20
2017-11-07T09:56:39.538Z,8.00
2017-11-07T09:57:39.556Z,7.60
2017-11-07T09:58:39.572Z,8.50
2017-11-07T09:59:39.590Z,8.20
2017-11-07T10:00:39.607Z,8.20
2017-11-07T10:01:39.623Z,8.30
2017-11-07T10:02:39.644Z,10.00
2017-11-07T10:03:39.659Z,10.10
2017-11-07T10:04:39.676Z,7.60
2017-11-07T10:05:39.696Z,7.10
2017-11-07T10:06:39.710Z,7.50
2017-11-07T10:07:39.727Z,7.40
2017-11-07T10:08:39.744Z,7.90
2017-11-07T10:09:39.761Z,7.50
2017-11-07T10:10:39.775Z,8.00
2017-11-07T10:11:39.794Z,8.50
2017-11-07T10:12:39.809Z,7.80
2017-11-07T10:13:39.827Z,8.40
2017-11-07T10:14:39.844Z,7.20
2017-11-07T10:15:39.858Z,6.80
2017-11-07T10:16:39.878Z,8.10
2017-11-07T10:17:39.891Z,7.70
2017-11-07T10:18:39.909Z,6.60
2017-11-07T10:19:39.927Z,6.60
2017-11-07T10:20:39.944Z,5.80
2017-11-07T10:21:39.959Z,5.60
2017-11-07T10:22:39.975Z,6.40
2017-11-07T10:23:39.990Z,6.50
2017-11-07T10:24:40.008Z,6.70
2017-11-07T10:25:40.028Z,6.00
2017-11-07T10:26:40.055Z,5.90
2017-11-07T10:27:40.055Z,7.50
2017-11-07T10:28:40.074Z,7.30
2017-11-07T10:29:40.088Z,6.80
2017-11-07T10:30:40.104Z,7.70
2017-11-07T10:31:40.121Z,5.50
2017-11-07T10:32:40.137Z,6.70
2017-11-07T10:33:40.153Z,5.70
2017-11-07T10:34:40.171Z,5.70
2017-11-07T10:35:40.184Z,8.40
2017-11-07T10:36:40.203Z,5.80
2017-11-07T10:37:40.217Z,5.20
2017-11-07T10:38:40.237Z,5.40
2017-11-07T10:39:40.249Z,4.40
2017-11-07T10:40:40.267Z,4.10
2017-11-07T10:41:40.285Z,4.90
2017-11-07T10:42:40.302Z,4.40
2017-11-07T10:43:40.317Z,4.30
2017-11-07T10:44:40.330Z,4.30
2017-11-07T10:45:40.347Z,5.60
2017-11-07T10:46:40.361Z,4.90
2017-11-07T10:47:40.377Z,4.30
2017-11-07T10:48:40.396Z,5.90
2017-11-07T10:49:40.412Z,4.90
2017-11-07T10:50:40.427Z,3.40
2017-11-07T10:51:40.443Z,3.20
2017-11-07T10:52:40.461Z,3.80
2017-11-07T10:53:40.476Z,4.30
2017-11-07T10:54:40.491Z,4.50
2017-11-07T10:55:40.509Z,3.80
2017-11-07T10:56:40.527Z,4.10
2017-11-07T10:57:40.542Z,3.50
2017-11-07T10:58:40.557Z,3.30
2017-11-07T10:59:40.576Z,3.70
2017-11-07T11:00:40.591Z,3.40
2017-11-07T11:01:40.607Z,3.20
2017-11-07T11:02:40.622Z,3.40
2017-11-07T11:03:40.639Z,3.10
2017-11-07T11:04:40.655Z,3.20
2017-11-07T11:05:40.671Z,3.30
2017-11-07T11:06:40.689Z,3.80
2017-11-07T11:07:40.706Z,3.20
2017-11-07T11:08:40.728Z,3.10
2017-11-07T11:09:40.744Z,2.90
2017-11-07T11:10:40.751Z,2.70
2017-11-07T11:11:40.771Z,3.20
2017-11-07T11:12:40.786Z,2.80
2017-11-07T11:13:40.806Z,3.20
2017-11-07T11:14:40.821Z,2.90
2017-11-07T11:15:40.836Z,2.90
2017-11-07T11:16:40.852Z,3.20
2017-11-07T11:17:40.871Z,2.70
2017-11-07T11:18:40.888Z,2.90
2017-11-07T11:19:40.903Z,3.10
2017-11-07T11:20:40.922Z,2.90
2017-11-07T11:21:40.936Z,2.50
2017-11-07T11:22:40.952Z,3.00
2017-11-07T11:23:40.970Z,3.30
2017-11-07T11:24:40.986Z,2.50
2017-11-07T11:25:41.005Z,2.60
2017-11-07T11:26:41.019Z,3.00
2017-11-07T11:27:41.034Z,2.70
2017-11-07T11:28:41.050Z,2.60
2017-11-07T11:29:41.066Z,2.80
2017-11-07T11:30:41.083Z,2.80
2017-11-07T11:31:41.099Z,2.90
2017-11-07T11:32:41.117Z,2.60
2017-11-07T11:33:41.134Z,3.30
2017-11-07T11:34:41.145Z,2.90
2017-11-07T11:35:41.168Z,3.30
2017-11-07T11:36:41.180Z,2.90
2017-11-07T11:37:41.198Z,3.70
2017-11-07T11:38:41.213Z,4.00
2017-11-07T11:39:41.229Z,3.50
2017-11-07T11:40:41.245Z,3.80
2017-11-07T11:41:41.264Z,3.40
2017-11-07T11:42:41.278Z,3.40
2017-11-07T11:43:41.297Z,3.50
2017-11-07T11:44:41.309Z,3.80
2017-11-07T11:45:41.326Z,4.30
2017-11-07T11:46:41.341Z,3.70
2017-11-07T11:47:41.357Z,4.50
2017-11-07T11:48:41.374Z,4.30
2017-11-07T11:49:41.396Z,4.00
2017-11-07T11:50:41.406Z,4.50
2017-11-07T11:51:41.427Z,4.40
2017-11-07T11:52:41.441Z,4.10
2017-11-07T11:53:41.465Z,3.80
2017-11-07T11:54:41.479Z,4.00
2017-11-07T11:55:41.493Z,4.40
2017-11-07T11:56:41.504Z,3.70
2017-11-07T11:57:41.521Z,4.10
2017-11-07T11:58:41.544Z,3.90
2017-11-07T11:59:41.555Z,4.00
2017-11-07T12:00:41.570Z,6.40
2017-11-07T12:01:41.593Z,4.10
2017-11-07T12:02:41.603Z,4.40
2017-11-07T12:03:41.622Z,3.80
2017-11-07T12:04:41.636Z,4.40
2017-11-07T12:05:41.651Z,4.30
2017-11-07T12:06:41.668Z,4.60
2017-11-07T12:07:41.685Z,3.50
2017-11-07T12:08:41.701Z,3.60
2017-11-07T12:09:41.716Z,3.60
2017-11-07T12:10:41.735Z,3.90
2017-11-07T12:11:41.747Z,4.30
2017-11-07T12:12:41.763Z,3.80
2017-11-07T12:13:41.781Z,3.90
2017-11-07T12:14:41.795Z,4.00
2017-11-07T12:15:41.814Z,4.00
2017-11-07T12:16:41.829Z,4.20
2017-11-07T12:17:41.848Z,4.10
2017-11-07T12:18:41.861Z,4.00
2017-11-07T12:19:41.879Z,4.40
2017-11-07T12:20:41.894Z,4.20
2017-11-07T12:21:41.911Z,4.60
2017-11-07T12:22:41.930Z,4.80
2017-11-07T12:23:41.944Z,4.40
2017-11-07T12:24:41.962Z,4.40
2017-11-07T12:25:41.981Z,4.60
2017-11-07T12:26:41.994Z,4.90
2017-11-07T12:27:42.010Z,5.30
2017-11-07T12:28:42.023Z,4.90
2017-11-07T12:29:42.042Z,5.00
2017-11-07T12:30:42.056Z,5.20
2017-11-07T12:31:42.073Z,4.70
2017-11-07T12:32:42.087Z,4.90
2017-11-07T12:33:42.107Z,5.20
2017-11-07T12:34:42.119Z,6.20
2017-11-07T12:35:42.137Z,5.80
2017-11-07T12:36:42.154Z,5.70
2017-11-07T12:37:42.173Z,5.70
2017-11-07T12:38:42.184Z,6.50
2017-11-07T12:39:42.201Z,5.90
2017-11-07T12:40:42.215Z,6.60
2017-11-07T12:41:42.234Z,6.00
2017-11-07T12:42:42.250Z,9.80
2017-11-07T12:43:42.266Z,6.70
2017-11-07T12:44:42.286Z,6.40
2017-11-07T12:45:42.297Z,6.60
2017-11-07T12:46:42.313Z,5.90
2017-11-07T12:47:42.329Z,6.50
2017-11-07T12:48:42.346Z,6.40
2017-11-07T12:49:42.361Z,6.60
2017-11-07T12:50:42.378Z,6.50
2017-11-07T12:51:42.393Z,6.40
2017-11-07T12:52:42.407Z,6.10
2017-11-07T12:53:42.424Z,5.70
2017-11-07T12:54:42.446Z,5.40
2017-11-07T12:55:42.455Z,5.80
2017-11-07T12:56:42.474Z,5.70
2017-11-07T12:57:42.488Z,5.40
2017-11-07T12:58:42.504Z,5.80
2017-11-07T12:59:42.521Z,6.00
2017-11-07T13:00:42.534Z,5.60